Terminal Aerodrome Forecast
Issued by NWS Portland, OR

Home | Current Version | Previous Version | Text Only | Print | Product List | Glossary On
Versions: 1 2 3 4 5 6 7 8 9 10 11 12 13 14 15 16 17 18 19 20 21 22 23 24 25 26
000
FTUS46 KPQR 231800 AAA
TAFTTD
TAF AMD
KTTD 231800Z 2318/2418 27003KT P6SM OVC012
     FM231837 28005KT P6SM SCT012 BKN120
     FM232000 29005KT P6SM SCT120
     FM240900 26003KT P6SM BKN020
     FM241200 29005KT P6SM -DZ SCT010 BKN020=

USA.gov is the U.S. government's official web portal to all federal, state and local government web resources and services.